createdAt,value
2023-03-06T00:00:38.088Z,0.40
2023-03-06T00:03:09.964Z,0.47
2023-03-06T00:05:42.202Z,0.42
2023-03-06T00:08:14.103Z,0.40
2023-03-06T00:10:45.959Z,0.51
2023-03-06T00:13:19.438Z,0.54
2023-03-06T00:15:51.048Z,0.57
2023-03-06T00:18:23.055Z,0.53
2023-03-06T00:20:54.884Z,0.55
2023-03-06T00:23:27.486Z,0.56
2023-03-06T00:25:59.364Z,0.60
2023-03-06T00:28:31.522Z,0.54
2023-03-06T00:31:03.394Z,0.49
2023-03-06T00:33:34.893Z,0.38
2023-03-06T00:36:06.750Z,0.42
2023-03-06T00:38:38.326Z,0.44
2023-03-06T00:41:09.837Z,0.45
2023-03-06T00:43:41.429Z,0.44
2023-03-06T00:46:13.069Z,0.53
2023-03-06T00:48:44.592Z,0.49
2023-03-06T00:51:17.481Z,0.55
2023-03-06T00:53:48.983Z,0.51
2023-03-06T00:56:20.611Z,0.54
2023-03-06T00:58:52.140Z,0.53
2023-03-06T01:01:24.125Z,0.52
2023-03-06T01:03:55.703Z,0.50
2023-03-06T01:06:27.228Z,0.53
2023-03-06T01:08:58.725Z,0.47
2023-03-06T01:11:30.235Z,0.47
2023-03-06T01:14:01.751Z,0.48
2023-03-06T01:16:33.332Z,0.45
2023-03-06T01:19:04.896Z,0.36
2023-03-06T01:21:36.870Z,0.46
2023-03-06T01:24:08.380Z,0.49
2023-03-06T01:26:40.224Z,0.54
2023-03-06T01:29:11.725Z,0.50
2023-03-06T01:31:43.586Z,0.47
2023-03-06T01:34:15.119Z,0.43
2023-03-06T01:36:46.829Z,0.46
2023-03-06T01:39:18.321Z,0.47
2023-03-06T01:41:50.274Z,0.42
2023-03-06T01:44:21.804Z,0.48
2023-03-06T01:46:53.644Z,0.44
2023-03-06T01:49:25.219Z,0.53
2023-03-06T01:51:57.116Z,0.58
2023-03-06T01:54:28.622Z,0.55
2023-03-06T01:57:00.510Z,0.58
2023-03-06T01:59:31.995Z,0.58
2023-03-06T02:02:03.842Z,0.62
2023-03-06T02:04:35.419Z,0.67
2023-03-06T02:07:07.315Z,0.73
2023-03-06T02:09:38.848Z,0.74
2023-03-06T02:12:10.676Z,0.77
2023-03-06T02:14:42.240Z,0.82
2023-03-06T02:17:14.033Z,0.91
2023-03-06T02:19:45.542Z,0.90
2023-03-06T02:22:17.452Z,0.94
2023-03-06T02:24:48.963Z,0.98
2023-03-06T02:27:20.607Z,0.99
2023-03-06T02:29:52.140Z,0.98
2023-03-06T02:32:24.025Z,1.01
2023-03-06T02:34:55.627Z,1.01
2023-03-06T02:37:27.172Z,0.99
2023-03-06T02:39:58.765Z,1.02
2023-03-06T02:42:30.300Z,1.00
2023-03-06T02:45:01.845Z,1.03
2023-03-06T02:47:33.422Z,1.02
2023-03-06T02:50:04.941Z,1.03
2023-03-06T02:52:36.817Z,1.05
2023-03-06T02:55:08.350Z,1.02
2023-03-06T02:57:40.044Z,1.01
2023-03-06T03:00:11.567Z,1.01
2023-03-06T03:02:43.735Z,1.05
2023-03-06T03:05:15.338Z,1.06
2023-03-06T03:07:47.173Z,1.09
2023-03-06T03:10:18.694Z,1.11
2023-03-06T03:12:50.491Z,1.06
2023-03-06T03:15:22.078Z,1.08
2023-03-06T03:17:53.807Z,1.11
2023-03-06T03:20:25.341Z,1.14
2023-03-06T03:22:57.045Z,1.14
2023-03-06T03:25:28.557Z,1.20
2023-03-06T03:28:00.115Z,1.14
2023-03-06T03:30:31.647Z,1.25
2023-03-06T03:33:03.730Z,1.24
2023-03-06T03:35:35.286Z,1.22
2023-03-06T03:38:06.886Z,1.28
2023-03-06T03:40:38.408Z,1.33
2023-03-06T03:43:10.396Z,1.42
2023-03-06T03:45:41.912Z,1.42
2023-03-06T03:48:13.741Z,1.38
2023-03-06T03:50:45.244Z,1.32
2023-03-06T03:53:17.313Z,1.37
2023-03-06T03:55:48.838Z,1.32
2023-03-06T03:58:20.694Z,1.34
2023-03-06T04:00:52.258Z,1.42
2023-03-06T04:03:24.065Z,1.46
2023-03-06T04:05:57.877Z,1.39
2023-03-06T04:08:29.479Z,1.42
2023-03-06T04:11:00.983Z,1.37
2023-03-06T04:13:32.533Z,1.40
2023-03-06T04:16:04.100Z,1.50
2023-03-06T04:18:36.084Z,1.50
2023-03-06T04:21:07.614Z,1.52
2023-03-06T04:23:39.457Z,1.55
2023-03-06T04:26:11.012Z,1.52
2023-03-06T04:28:42.873Z,1.66
2023-03-06T04:31:14.426Z,1.77
2023-03-06T04:33:46.348Z,1.79
2023-03-06T04:36:17.850Z,1.75
2023-03-06T04:38:49.712Z,1.68
2023-03-06T04:41:21.231Z,1.72
2023-03-06T04:46:47.701Z,1.67
2023-03-06T04:49:19.469Z,1.65
2023-03-06T04:51:50.974Z,1.53
2023-03-06T04:54:22.918Z,1.53
2023-03-06T04:56:54.449Z,1.48
2023-03-06T04:59:26.138Z,1.44
2023-03-06T05:01:58.140Z,1.47
2023-03-06T05:04:29.753Z,1.37
2023-03-06T05:07:01.238Z,1.30
2023-03-06T05:09:32.788Z,1.34
2023-03-06T05:12:04.280Z,1.30
2023-03-06T05:14:36.263Z,1.18
2023-03-06T05:17:07.768Z,1.13
2023-03-06T05:19:39.605Z,1.20
2023-03-06T05:22:11.139Z,1.16
2023-03-06T05:24:42.922Z,1.08
2023-03-06T05:27:16.827Z,1.05
2023-03-06T05:29:48.857Z,1.08
2023-03-06T05:32:20.365Z,1.06
2023-03-06T05:34:52.176Z,1.01
2023-03-06T05:37:23.748Z,0.94
2023-03-06T05:39:55.651Z,1.02
2023-03-06T05:42:28.740Z,0.94
2023-03-06T05:45:00.608Z,0.93
2023-03-06T05:47:32.120Z,0.93
2023-03-06T05:50:04.030Z,0.99
2023-03-06T05:52:35.581Z,0.94
2023-03-06T05:55:07.796Z,0.90
2023-03-06T05:57:39.366Z,0.92
2023-03-06T06:00:11.099Z,0.98
2023-03-06T06:02:43.394Z,0.94
2023-03-06T06:05:15.203Z,0.99
2023-03-06T06:07:46.697Z,0.86
2023-03-06T06:10:18.655Z,0.94
2023-03-06T06:12:50.168Z,0.96
2023-03-06T06:15:21.949Z,0.92
2023-03-06T06:17:53.463Z,0.82
2023-03-06T06:20:25.476Z,0.80
2023-03-06T06:22:57.066Z,0.86
2023-03-06T06:25:28.578Z,0.93
2023-03-06T06:28:00.433Z,0.93
2023-03-06T06:30:31.929Z,0.83
2023-03-06T06:33:03.906Z,0.90
2023-03-06T06:35:35.404Z,0.98
2023-03-06T06:38:07.291Z,0.88
2023-03-06T06:40:38.780Z,0.99
2023-03-06T06:43:10.658Z,1.11
2023-03-06T06:45:44.119Z,1.10
2023-03-06T06:48:17.543Z,1.17
2023-03-06T06:50:49.520Z,1.18
2023-03-06T06:53:21.364Z,1.17
2023-03-06T06:55:52.872Z,1.17
2023-03-06T06:58:24.707Z,1.18
2023-03-06T07:00:56.208Z,1.13
2023-03-06T07:03:27.700Z,1.24
2023-03-06T07:05:59.393Z,1.25
2023-03-06T07:08:30.928Z,1.21
2023-03-06T07:11:02.539Z,1.44
2023-03-06T07:13:34.131Z,1.44
2023-03-06T07:16:05.684Z,1.48
2023-03-06T07:18:37.578Z,1.42
2023-03-06T07:21:09.093Z,1.23
2023-03-06T07:23:40.990Z,1.19
2023-03-06T07:26:12.503Z,1.33
2023-03-06T07:28:52.272Z,1.24
2023-03-06T07:31:24.449Z,1.17
2023-03-06T07:33:56.387Z,1.16
2023-03-06T07:36:28.001Z,1.23
2023-03-06T07:38:59.867Z,1.34
2023-03-06T07:41:31.435Z,1.30
2023-03-06T07:44:03.352Z,1.52
2023-03-06T07:46:34.887Z,1.83
2023-03-06T07:49:06.761Z,1.80
2023-03-06T07:51:38.324Z,1.96
2023-03-06T07:54:10.251Z,1.98
2023-03-06T07:56:41.748Z,2.06
2023-03-06T07:59:13.631Z,2.21
2023-03-06T08:01:45.143Z,2.34
2023-03-06T08:04:17.039Z,2.47
2023-03-06T08:06:48.559Z,2.34
2023-03-06T08:09:20.484Z,2.27
2023-03-06T08:11:51.974Z,2.15
2023-03-06T08:14:23.654Z,2.01
2023-03-06T08:16:55.176Z,2.06
2023-03-06T08:19:26.844Z,2.08
2023-03-06T08:21:58.329Z,2.10
2023-03-06T08:24:29.836Z,2.01
2023-03-06T08:27:01.336Z,1.98
2023-03-06T08:29:32.873Z,2.05
2023-03-06T08:32:04.453Z,2.26
2023-03-06T08:34:36.249Z,2.14
2023-03-06T08:37:07.816Z,2.01
2023-03-06T08:39:39.863Z,2.01
2023-03-06T08:42:11.392Z,1.87
2023-03-06T08:44:43.318Z,1.93
2023-03-06T08:47:14.899Z,1.97
2023-03-06T08:49:46.927Z,1.93
2023-03-06T08:52:19.821Z,1.91
2023-03-06T08:54:51.808Z,0.85
2023-03-06T08:57:23.906Z,1.78
2023-03-06T08:59:55.449Z,1.72
2023-03-06T09:02:27.066Z,1.72
2023-03-06T09:04:59.800Z,1.59
2023-03-06T09:07:31.309Z,1.49
2023-03-06T09:10:03.151Z,1.60
2023-03-06T09:12:43.898Z,1.56
2023-03-06T09:15:21.223Z,1.36
2023-03-06T09:17:54.161Z,1.40
2023-03-06T09:20:25.763Z,1.58
2023-03-06T09:22:57.534Z,1.63
2023-03-06T09:25:29.048Z,1.75
2023-03-06T09:28:10.799Z,1.61
2023-03-06T09:30:43.442Z,1.62
2023-03-06T09:33:14.977Z,1.64
2023-03-06T09:35:46.846Z,1.72
2023-03-06T09:38:18.351Z,1.55
2023-03-06T09:40:50.415Z,1.60
2023-03-06T09:43:21.933Z,1.62
2023-03-06T09:45:53.877Z,1.78
2023-03-06T09:48:25.374Z,1.68
2023-03-06T09:50:58.782Z,1.47
2023-03-06T09:53:30.339Z,1.49
2023-03-06T09:56:02.295Z,1.34
2023-03-06T09:58:33.792Z,1.33
2023-03-06T10:01:06.030Z,1.57
2023-03-06T10:03:37.908Z,1.50
2023-03-06T10:06:09.545Z,1.48
2023-03-06T10:08:41.378Z,1.56
2023-03-06T10:11:12.873Z,1.54
2023-03-06T10:13:44.808Z,1.34
2023-03-06T10:16:16.354Z,1.60
2023-03-06T10:18:48.178Z,1.91
2023-03-06T10:21:20.918Z,2.03
2023-03-06T10:23:52.852Z,2.08
2023-03-06T10:26:24.569Z,2.17
2023-03-06T10:28:56.366Z,2.10
2023-03-06T10:31:28.037Z,1.97
2023-03-06T10:33:59.922Z,2.23
2023-03-06T10:36:31.433Z,2.34
2023-03-06T10:39:03.271Z,2.05
2023-03-06T10:41:38.356Z,2.11
2023-03-06T10:44:10.319Z,2.28
2023-03-06T10:46:45.191Z,2.20
2023-03-06T10:49:16.913Z,2.10
2023-03-06T10:51:48.429Z,2.34
2023-03-06T10:54:20.473Z,2.28
2023-03-06T10:56:52.020Z,2.22
2023-03-06T10:59:25.670Z,2.54
2023-03-06T11:01:57.313Z,2.82
2023-03-06T11:04:28.988Z,2.66
2023-03-06T11:07:00.528Z,2.63
2023-03-06T11:09:33.253Z,2.97
2023-03-06T11:12:04.774Z,2.64
2023-03-06T11:14:36.734Z,2.70
2023-03-06T11:17:08.232Z,2.47
2023-03-06T11:19:40.091Z,2.90
2023-03-06T11:22:11.595Z,3.05
2023-03-06T11:24:43.493Z,3.13
2023-03-06T11:27:14.989Z,3.19
2023-03-06T11:29:46.717Z,3.21
2023-03-06T11:32:18.302Z,2.70
2023-03-06T11:34:50.792Z,2.48
2023-03-06T11:37:22.455Z,2.50
2023-03-06T11:39:54.993Z,2.91
2023-03-06T11:42:26.549Z,2.73
2023-03-06T11:44:58.240Z,3.29
2023-03-06T11:47:29.772Z,3.47
2023-03-06T11:50:01.598Z,3.37
2023-03-06T11:52:33.114Z,3.43
2023-03-06T11:55:04.974Z,3.31
2023-03-06T11:57:36.451Z,3.04
2023-03-06T12:00:08.621Z,2.74
2023-03-06T12:02:40.293Z,3.35
2023-03-06T12:05:12.135Z,3.21
2023-03-06T12:07:43.669Z,3.44
2023-03-06T12:10:15.542Z,3.90
2023-03-06T12:12:47.052Z,4.09
2023-03-06T12:15:18.781Z,3.96
2023-03-06T12:17:50.274Z,3.76
2023-03-06T12:20:22.331Z,3.86
2023-03-06T12:22:58.264Z,4.05
2023-03-06T12:25:34.211Z,3.60
2023-03-06T12:28:05.724Z,3.68
2023-03-06T12:30:37.508Z,3.74
2023-03-06T12:33:08.999Z,3.91
2023-03-06T12:35:40.961Z,4.07
2023-03-06T12:38:12.484Z,3.88
2023-03-06T12:40:44.227Z,3.23
2023-03-06T12:43:15.765Z,3.24
2023-03-06T12:45:50.379Z,4.07
2023-03-06T12:48:21.881Z,4.54
2023-03-06T12:50:53.631Z,4.75
2023-03-06T12:53:25.151Z,4.64
2023-03-06T12:55:56.876Z,4.84
2023-03-06T12:58:28.685Z,4.98
2023-03-06T13:01:04.210Z,4.92
2023-03-06T13:03:36.646Z,4.19
2023-03-06T13:06:08.234Z,4.20
2023-03-06T13:08:39.835Z,4.37
2023-03-06T13:11:11.674Z,4.63
2023-03-06T13:13:43.196Z,5.00
2023-03-06T13:16:15.126Z,4.86
2023-03-06T13:18:46.781Z,4.84
2023-03-06T13:21:18.538Z,4.74
2023-03-06T13:23:50.599Z,4.87
2023-03-06T13:26:22.428Z,4.93
2023-03-06T13:28:54.056Z,5.15
2023-03-06T13:31:27.832Z,5.50
2023-03-06T13:33:59.717Z,5.70
2023-03-06T13:36:31.331Z,5.81
2023-03-06T13:39:03.150Z,5.95
2023-03-06T13:41:34.745Z,5.85
2023-03-06T13:44:06.237Z,5.94
2023-03-06T13:46:38.000Z,5.70
2023-03-06T13:49:09.561Z,5.10
2023-03-06T13:51:41.377Z,5.13
2023-03-06T13:54:13.375Z,5.31
2023-03-06T13:56:45.300Z,4.98
2023-03-06T13:59:16.846Z,4.98
2023-03-06T14:01:48.778Z,4.98
2023-03-06T14:04:20.367Z,4.66
2023-03-06T14:06:52.279Z,4.98
2023-03-06T14:09:23.842Z,5.14
2023-03-06T14:11:55.669Z,5.26
2023-03-06T14:14:27.162Z,5.43
2023-03-06T14:16:58.877Z,5.52
2023-03-06T14:19:30.361Z,5.45
2023-03-06T14:22:03.939Z,5.27
2023-03-06T14:24:35.516Z,5.31
2023-03-06T14:27:07.484Z,5.53
2023-03-06T14:29:38.991Z,5.34
2023-03-06T14:32:10.727Z,4.91
2023-03-06T14:34:42.265Z,4.32
2023-03-06T14:37:14.102Z,4.35
2023-03-06T14:39:46.685Z,4.69
2023-03-06T14:42:18.638Z,4.43
2023-03-06T14:44:50.163Z,4.50
2023-03-06T14:47:22.472Z,4.55
2023-03-06T14:49:53.997Z,4.91
2023-03-06T14:52:25.700Z,4.34
2023-03-06T14:54:57.204Z,5.30
2023-03-06T14:57:28.744Z,4.73
2023-03-06T15:00:00.313Z,4.84
2023-03-06T15:02:33.015Z,4.89
2023-03-06T15:05:04.971Z,5.07
2023-03-06T15:07:37.347Z,4.13
2023-03-06T15:10:10.750Z,4.61
2023-03-06T15:12:42.257Z,4.57
2023-03-06T15:15:14.086Z,4.62
2023-03-06T15:17:45.676Z,4.71
2023-03-06T15:20:17.521Z,5.02
2023-03-06T15:22:49.013Z,5.01
2023-03-06T15:25:20.899Z,4.61
2023-03-06T15:27:52.410Z,4.92
2023-03-06T15:30:24.327Z,4.71
2023-03-06T15:32:55.842Z,4.50
2023-03-06T15:35:27.553Z,4.25
2023-03-06T15:37:59.298Z,4.10
2023-03-06T15:40:31.791Z,4.06
2023-03-06T15:43:03.311Z,3.88
2023-03-06T15:45:34.869Z,3.58
2023-03-06T15:48:06.384Z,3.56
2023-03-06T15:50:38.370Z,3.37
2023-03-06T15:53:09.926Z,3.15
2023-03-06T15:55:41.754Z,3.03
2023-03-06T15:58:13.259Z,2.89
2023-03-06T16:00:45.187Z,2.87
2023-03-06T16:03:16.717Z,2.53
2023-03-06T16:05:48.603Z,2.56
2023-03-06T16:08:20.100Z,2.51
2023-03-06T16:10:52.703Z,2.41
2023-03-06T16:13:24.206Z,2.34
2023-03-06T16:15:55.735Z,2.28
2023-03-06T16:18:27.240Z,2.24
2023-03-06T16:20:59.120Z,2.06
2023-03-06T16:23:30.696Z,2.14
2023-03-06T16:26:02.513Z,2.10
2023-03-06T16:28:34.207Z,2.08
2023-03-06T16:31:06.045Z,2.03
2023-03-06T16:33:37.610Z,1.94
2023-03-06T16:36:09.151Z,1.79
2023-03-06T16:38:40.645Z,1.66
2023-03-06T16:41:12.510Z,1.50
2023-03-06T16:43:44.028Z,1.40
2023-03-06T16:46:15.919Z,1.31
2023-03-06T16:48:47.452Z,1.22
2023-03-06T16:51:18.993Z,1.18
2023-03-06T16:53:53.307Z,1.05
2023-03-06T16:56:25.164Z,1.05
2023-03-06T16:58:56.661Z,0.95
2023-03-06T17:01:28.180Z,0.90
2023-03-06T17:03:59.784Z,0.85
2023-03-06T17:06:31.379Z,0.76
2023-03-06T17:09:02.884Z,0.67
2023-03-06T17:11:34.489Z,0.61
2023-03-06T17:14:06.910Z,0.56
2023-03-06T17:16:40.576Z,0.49
2023-03-06T17:19:14.296Z,0.48
2023-03-06T17:21:46.141Z,0.46
2023-03-06T17:24:17.650Z,0.36
2023-03-06T17:26:49.497Z,0.37
2023-03-06T17:29:21.072Z,0.31
2023-03-06T17:31:52.937Z,0.30
2023-03-06T17:34:24.707Z,0.28
2023-03-06T17:36:56.718Z,0.22
2023-03-06T17:39:29.303Z,0.20
2023-03-06T17:42:01.533Z,0.19
2023-03-06T17:44:33.070Z,0.12
2023-03-06T17:47:04.934Z,0.02
2023-03-06T17:49:36.460Z,-0.03
2023-03-06T17:52:08.359Z,-0.07
2023-03-06T17:54:39.881Z,-0.13
2023-03-06T17:57:11.469Z,-0.18
2023-03-06T17:59:47.688Z,-0.21
2023-03-06T18:02:19.224Z,-0.26
2023-03-06T18:04:50.770Z,-0.31
2023-03-06T18:07:22.751Z,-0.32
2023-03-06T18:09:54.436Z,-0.34
2023-03-06T18:12:26.229Z,-0.38
2023-03-06T18:14:57.749Z,-0.39
2023-03-06T18:17:29.258Z,-0.44
2023-03-06T18:20:00.783Z,-0.48
2023-03-06T18:22:32.423Z,-0.49
2023-03-06T18:25:03.967Z,-0.55
2023-03-06T18:27:35.923Z,-0.59
2023-03-06T18:30:07.525Z,-0.63
2023-03-06T18:32:39.483Z,-0.68
2023-03-06T18:35:11.040Z,-0.70
2023-03-06T18:37:42.924Z,-0.69
2023-03-06T18:40:14.472Z,-0.70
2023-03-06T18:42:46.322Z,-0.71
2023-03-06T18:45:17.900Z,-0.71
2023-03-06T18:47:49.721Z,-0.74
2023-03-06T18:50:21.236Z,-0.75
2023-03-06T18:52:53.113Z,-0.77
2023-03-06T18:55:24.626Z,-0.78
2023-03-06T18:57:56.152Z,-0.80
2023-03-06T19:00:27.675Z,-0.86
2023-03-06T19:02:59.487Z,-0.90
2023-03-06T19:05:30.983Z,-0.93
2023-03-06T19:08:02.924Z,-0.95
2023-03-06T19:10:34.695Z,-0.96
2023-03-06T19:13:06.535Z,-1.00
2023-03-06T19:15:38.038Z,-0.99
2023-03-06T19:18:09.985Z,-1.02
2023-03-06T19:20:41.497Z,-0.99
2023-03-06T19:23:13.781Z,-1.02
2023-03-06T19:25:45.307Z,-1.07
2023-03-06T19:28:17.163Z,-1.11
2023-03-06T19:30:48.689Z,-1.12
2023-03-06T19:33:20.557Z,-1.06
2023-03-06T19:35:52.107Z,-1.12
2023-03-06T19:38:23.676Z,-1.16
2023-03-06T19:40:55.331Z,-1.16
2023-03-06T19:43:26.941Z,-1.18
2023-03-06T19:45:58.529Z,-1.19
2023-03-06T19:48:30.049Z,-1.21
2023-03-06T19:51:01.556Z,-1.23
2023-03-06T19:53:33.808Z,-1.26
2023-03-06T19:56:05.336Z,-1.30
2023-03-06T19:58:37.264Z,-1.29
2023-03-06T20:01:08.849Z,-1.33
2023-03-06T20:03:40.729Z,-1.35
2023-03-06T20:06:12.250Z,-1.35
2023-03-06T20:08:44.341Z,-1.38
2023-03-06T20:11:15.839Z,-1.39
2023-03-06T20:13:47.978Z,-1.40
2023-03-06T20:16:19.582Z,-1.41
2023-03-06T20:18:51.951Z,-1.42
2023-03-06T20:21:23.929Z,-1.46
2023-03-06T20:23:56.969Z,-1.48
2023-03-06T20:26:28.583Z,-1.47
2023-03-06T20:29:00.207Z,-1.45
2023-03-06T20:31:31.892Z,-1.44
2023-03-06T20:34:03.463Z,-1.44
2023-03-06T20:36:36.361Z,-1.42
2023-03-06T20:39:08.826Z,-1.41
2023-03-06T20:41:40.359Z,-1.38
2023-03-06T20:44:13.405Z,-1.41
2023-03-06T20:46:45.461Z,-1.43
2023-03-06T20:49:17.053Z,-1.44
2023-03-06T20:51:50.243Z,-1.43
2023-03-06T20:54:21.754Z,-1.43
2023-03-06T20:56:53.287Z,-1.43
2023-03-06T20:59:25.085Z,-1.41
2023-03-06T21:01:56.961Z,-1.47
2023-03-06T21:04:28.592Z,-1.51
2023-03-06T21:07:00.466Z,-1.54
2023-03-06T21:09:34.429Z,-1.58
2023-03-06T21:12:06.282Z,-1.58
2023-03-06T21:14:37.961Z,-1.61
2023-03-06T21:17:09.845Z,-1.61
2023-03-06T21:19:41.511Z,-1.62
2023-03-06T21:22:13.924Z,-1.60
2023-03-06T21:24:45.500Z,-1.59
2023-03-06T21:27:17.349Z,-1.58
2023-03-06T21:29:48.862Z,-1.59
2023-03-06T21:32:20.738Z,-1.61
2023-03-06T21:34:52.304Z,-1.64
2023-03-06T21:37:23.900Z,-1.62
2023-03-06T21:39:55.407Z,-1.63
2023-03-06T21:42:27.032Z,-1.64
2023-03-06T21:44:59.799Z,-1.64
2023-03-06T21:47:31.772Z,-1.66
2023-03-06T21:50:03.271Z,-1.66
2023-03-06T21:52:34.782Z,-1.63
2023-03-06T21:55:06.482Z,-1.67
2023-03-06T21:57:38.055Z,-1.67
2023-03-06T22:00:11.180Z,-1.70
2023-03-06T22:02:44.393Z,-1.74
2023-03-06T22:05:15.889Z,-1.70
2023-03-06T22:07:47.443Z,-1.76
2023-03-06T22:10:18.972Z,-1.76
2023-03-06T22:12:50.848Z,-1.75
2023-03-06T22:15:22.403Z,-1.78
2023-03-06T22:17:53.948Z,-1.78
2023-03-06T22:20:25.457Z,-1.81
2023-03-06T22:22:57.323Z,-1.85
2023-03-06T22:25:28.839Z,-1.86
2023-03-06T22:28:00.577Z,-1.92
2023-03-06T22:30:32.142Z,-1.92
2023-03-06T22:33:04.094Z,-1.92
2023-03-06T22:35:35.857Z,-1.94
2023-03-06T22:38:07.777Z,-1.95
2023-03-06T22:40:39.283Z,-1.96
2023-03-06T22:43:11.115Z,-1.99
2023-03-06T22:45:42.627Z,-2.02
2023-03-06T22:48:14.550Z,-2.02
2023-03-06T22:50:46.054Z,-2.04
2023-03-06T22:53:17.733Z,-2.02
2023-03-06T22:55:49.249Z,-2.06
2023-03-06T22:58:21.097Z,-2.07
2023-03-06T23:00:52.717Z,-2.09
2023-03-06T23:03:24.557Z,-2.14
2023-03-06T23:05:56.074Z,-2.16
2023-03-06T23:08:27.591Z,-2.16
2023-03-06T23:10:59.097Z,-2.19
2023-03-06T23:13:30.615Z,-2.16
2023-03-06T23:16:02.303Z,-2.09
2023-03-06T23:18:34.264Z,-2.00
2023-03-06T23:21:05.780Z,-1.94
2023-03-06T23:23:37.622Z,-1.92
2023-03-06T23:26:09.154Z,-1.85
2023-03-06T23:28:41.100Z,-1.81
2023-03-06T23:31:12.700Z,-1.76
2023-03-06T23:33:44.637Z,-1.76
2023-03-06T23:36:16.220Z,-1.76
2023-03-06T23:38:48.289Z,-1.75
2023-03-06T23:41:19.795Z,-1.68
2023-03-06T23:43:53.467Z,-1.74
2023-03-06T23:46:26.487Z,-1.77
2023-03-06T23:48:58.266Z,-1.84
2023-03-06T23:51:29.779Z,-1.75
2023-03-06T23:54:01.618Z,-1.81
2023-03-06T23:56:34.170Z,-1.89
2023-03-06T23:59:06.197Z,-1.83
